Time;durP1;ratioP1;P1;durP2;ratioP2;P2;SDS_P1;SDS_P2;PMS_P1;PMS_P2;Temp;Humidity;BMP_temperature;BMP_pressure;BME280_temperature;BME280_humidity;BME280_pressure;Samples;Min_cycle;Max_cycle;Signal;HPM_P1;HPM_P2
2023/04/19 00:00:51;;;;;;;7.70;3.03;;;22.90;60.00;;;;;;4842142;29;20037;-68
2023/04/19 00:03:17;;;;;;;7.50;3.33;;;22.90;60.00;;;;;;4842073;29;20042;-69
2023/04/19 00:05:43;;;;;;;6.68;3.00;;;22.90;60.10;;;;;;4852087;29;20052;-71
2023/04/19 00:08:09;;;;;;;4.28;3.03;;;22.90;60.10;;;;;;4860253;29;20053;-71
2023/04/19 00:10:36;;;;;;;9.88;3.55;;;22.90;59.90;;;;;;4860062;29;20041;-72
2023/04/19 00:13:02;;;;;;;4.85;3.03;;;23.00;59.80;;;;;;4860161;29;20073;-71
2023/04/19 00:15:28;;;;;;;5.68;2.83;;;23.00;59.80;;;;;;4858565;29;20080;-70
2023/04/19 00:17:54;;;;;;;6.72;3.40;;;23.00;59.70;;;;;;4859815;29;20049;-69
2023/04/19 00:20:20;;;;;;;6.22;3.50;;;23.00;59.70;;;;;;4860052;29;20037;-69
2023/04/19 00:22:46;;;;;;;5.57;3.45;;;23.00;59.80;;;;;;4859850;29;20030;-68
2023/04/19 00:25:13;;;;;;;6.43;2.88;;;23.10;59.80;;;;;;4859098;29;20080;-68
2023/04/19 00:27:39;;;;;;;5.13;2.78;;;23.00;59.50;;;;;;4859391;29;20069;-68
2023/04/19 00:30:06;;;;;;;5.07;2.95;;;23.10;59.50;;;;;;4859776;29;20558;-68
2023/04/19 00:32:32;;;;;;;8.38;3.28;;;23.10;59.40;;;;;;4859927;29;20232;-68
2023/04/19 00:34:58;;;;;;;7.32;3.03;;;23.00;59.30;;;;;;4858580;29;20041;-70
2023/04/19 00:37:24;;;;;;;5.10;2.83;;;23.00;59.30;;;;;;4859293;29;20053;-71
2023/04/19 00:39:50;;;;;;;4.20;2.92;;;23.10;59.40;;;;;;4859263;29;20041;-71
2023/04/19 00:42:16;;;;;;;8.30;3.42;;;23.10;59.30;;;;;;4859610;29;20039;-70
2023/04/19 00:44:42;;;;;;;7.47;3.03;;;23.10;59.40;;;;;;4854416;29;20030;-71
2023/04/19 00:47:08;;;;;;;4.05;3.10;;;22.90;59.40;;;;;;4859368;29;20037;-70
2023/04/19 00:49:35;;;;;;;5.72;2.97;;;22.90;59.70;;;;;;4859110;29;20386;-71
2023/04/19 00:52:02;;;;;;;8.38;3.20;;;23.00;59.40;;;;;;4838291;29;20498;-71
2023/04/19 00:54:28;;;;;;;4.95;2.80;;;23.00;59.50;;;;;;4823451;29;20054;-71
2023/04/19 00:56:55;;;;;;;12.95;3.20;;;22.90;59.60;;;;;;4823426;29;20446;-70
2023/04/19 00:59:24;;;;;;;4.55;2.92;;;22.80;59.60;;;;;;4820319;29;20074;-70
2023/04/19 01:01:50;;;;;;;7.03;3.40;;;22.90;60.00;;;;;;4820443;29;20133;-71
2023/04/19 01:04:16;;;;;;;4.90;2.85;;;22.80;59.90;;;;;;4820396;29;20054;-70
2023/04/19 01:06:42;;;;;;;9.48;3.65;;;22.90;60.00;;;;;;4789887;29;20902;-70
2023/04/19 01:09:10;;;;;;;5.90;3.47;;;22.90;59.90;;;;;;4805163;29;20145;-70
2023/04/19 01:11:40;;;;;;;5.75;3.05;;;22.90;59.90;;;;;;4805003;29;20058;-69
2023/04/19 01:14:06;;;;;;;7.82;3.25;;;22.90;59.90;;;;;;4804678;29;20504;-70
2023/04/19 01:16:32;;;;;;;8.00;3.17;;;23.00;59.90;;;;;;4800219;29;20062;-71
2023/04/19 01:18:58;;;;;;;4.78;3.15;;;22.80;59.90;;;;;;4818238;29;20042;-71
2023/04/19 01:21:28;;;;;;;6.40;3.63;;;22.90;59.90;;;;;;4820221;29;20038;-69
2023/04/19 01:23:54;;;;;;;4.85;2.95;;;23.00;59.60;;;;;;4820496;29;20117;-72
2023/04/19 01:26:21;;;;;;;9.50;3.78;;;22.90;59.70;;;;;;4822835;29;20134;-72
2023/04/19 01:28:47;;;;;;;10.93;3.83;;;23.00;59.60;;;;;;4822908;29;20510;-70
2023/04/19 01:31:15;;;;;;;12.15;3.83;;;22.90;59.60;;;;;;4820975;29;20051;-73
2023/04/19 01:33:41;;;;;;;6.22;3.35;;;22.90;59.80;;;;;;4836121;29;20034;-73
2023/04/19 01:36:08;;;;;;;4.63;3.15;;;22.70;59.60;;;;;;4822292;29;20046;-72
2023/04/19 01:38:35;;;;;;;9.52;3.92;;;22.90;59.80;;;;;;4822437;29;20490;-72
2023/04/19 01:41:01;;;;;;;8.95;3.47;;;22.90;60.00;;;;;;4822505;29;20099;-72
2023/04/19 01:43:27;;;;;;;12.50;3.92;;;22.70;59.80;;;;;;4822702;29;20437;-72
2023/04/19 01:45:53;;;;;;;11.55;3.55;;;22.70;59.90;;;;;;4822277;29;20070;-71
2023/04/19 01:48:19;;;;;;;5.63;3.90;;;22.70;60.00;;;;;;4836153;29;20099;-72
2023/04/19 01:50:45;;;;;;;5.25;3.60;;;22.70;59.90;;;;;;4820785;29;20066;-72
2023/04/19 01:53:11;;;;;;;7.30;3.78;;;22.70;60.00;;;;;;4822476;29;20058;-72
2023/04/19 01:55:38;;;;;;;9.32;4.38;;;22.70;60.10;;;;;;4824675;29;20060;-72
2023/04/19 01:58:04;;;;;;;8.07;3.85;;;22.80;60.00;;;;;;4824397;29;20451;-73
2023/04/19 02:00:30;;;;;;;6.07;3.97;;;22.70;59.90;;;;;;4839595;29;20042;-72
2023/04/19 02:02:56;;;;;;;6.60;3.15;;;22.70;59.90;;;;;;4825643;29;20037;-72
2023/04/19 02:05:22;;;;;;;8.30;3.50;;;22.80;59.90;;;;;;4824226;29;20054;-72
2023/04/19 02:07:48;;;;;;;14.32;4.50;;;22.80;59.80;;;;;;4839395;29;20495;-72
2023/04/19 02:10:14;;;;;;;8.25;3.88;;;22.80;59.80;;;;;;4825712;29;20126;-72
2023/04/19 02:12:41;;;;;;;5.50;4.03;;;22.80;60.00;;;;;;4839465;29;20121;-72
2023/04/19 02:15:08;;;;;;;4.65;3.17;;;22.70;59.70;;;;;;4824394;29;20046;-72
2023/04/19 02:17:35;;;;;;;5.32;3.05;;;22.80;59.60;;;;;;4825121;29;20069;-73
2023/04/19 02:20:00;;;;;;;8.45;3.08;;;22.70;59.50;;;;;;4825352;29;20117;-73
2023/04/19 02:22:27;;;;;;;6.38;3.90;;;22.90;59.60;;;;;;4824022;29;20053;-72
2023/04/19 02:24:53;;;;;;;8.48;3.72;;;22.80;59.60;;;;;;4839378;29;20038;-70
2023/04/19 02:27:25;;;;;;;10.88;3.67;;;22.70;59.70;;;;;;4804282;29;20124;-71
2023/04/19 02:29:51;;;;;;;7.57;4.63;;;22.80;59.60;;;;;;4804751;29;20067;-73
2023/04/19 02:32:17;;;;;;;4.18;3.60;;;22.70;59.60;;;;;;4804374;29;20238;-73
2023/04/19 02:34:43;;;;;;;6.43;3.63;;;22.50;59.50;;;;;;4804703;29;20043;-72
2023/04/19 02:37:09;;;;;;;6.20;3.60;;;22.60;59.70;;;;;;4804456;29;20064;-72
2023/04/19 02:39:35;;;;;;;9.32;3.95;;;22.60;59.70;;;;;;4803441;29;20055;-73
2023/04/19 02:42:02;;;;;;;10.15;4.32;;;22.60;59.70;;;;;;4802072;29;20416;-72
2023/04/19 02:44:28;;;;;;;5.35;4.07;;;22.60;59.80;;;;;;4801880;29;20046;-73
2023/04/19 02:46:54;;;;;;;5.97;3.90;;;22.60;59.80;;;;;;4801716;29;20057;-74
2023/04/19 02:49:20;;;;;;;6.03;4.18;;;22.50;60.00;;;;;;4786384;29;20055;-72
2023/04/19 02:51:46;;;;;;;10.60;3.50;;;22.50;60.00;;;;;;4801638;29;20071;-72
2023/04/19 02:54:13;;;;;;;10.95;3.72;;;22.60;60.10;;;;;;4801195;29;20080;-73
2023/04/19 02:56:42;;;;;;;8.68;3.75;;;22.50;60.00;;;;;;4816570;29;20047;-74
2023/04/19 02:59:08;;;;;;;5.95;3.72;;;22.50;60.10;;;;;;4801609;29;20055;-71
2023/04/19 03:01:34;;;;;;;7.43;3.97;;;22.60;60.00;;;;;;4786515;29;20548;-74
2023/04/19 03:04:03;;;;;;;8.90;3.60;;;22.60;59.90;;;;;;4820112;29;20058;-74
2023/04/19 03:06:32;;;;;;;7.15;4.10;;;22.60;59.90;;;;;;4834280;29;20136;-66
2023/04/19 03:08:58;;;;;;;5.47;3.85;;;22.60;59.80;;;;;;4838281;29;20117;-73
2023/04/19 03:11:24;;;;;;;6.25;3.53;;;22.60;59.90;;;;;;4828554;29;20081;-73
2023/04/19 03:13:50;;;;;;;9.77;3.97;;;22.80;59.70;;;;;;4840386;29;20053;-73
2023/04/19 03:16:16;;;;;;;6.32;3.58;;;22.60;59.50;;;;;;4840041;29;20050;-72
2023/04/19 03:18:43;;;;;;;10.02;3.20;;;22.50;59.60;;;;;;4824751;29;20554;-73
2023/04/19 03:21:10;;;;;;;9.25;3.75;;;22.60;59.80;;;;;;4824732;29;20064;-73
2023/04/19 03:23:50;;;;;;;9.65;4.00;;;22.60;59.70;;;;;;4824958;29;20042;-73
2023/04/19 03:26:17;;;;;;;8.80;3.25;;;22.60;59.50;;;;;;4824508;29;20046;-72
2023/04/19 03:28:47;;;;;;;6.10;3.63;;;22.60;59.40;;;;;;4827777;29;20120;-72
2023/04/19 03:31:15;;;;;;;7.07;4.07;;;22.80;59.70;;;;;;4858068;29;20064;-72
2023/04/19 03:33:42;;;;;;;6.88;3.00;;;22.70;59.50;;;;;;4843171;29;20037;-74
2023/04/19 03:36:11;;;;;;;12.00;3.90;;;22.80;59.60;;;;;;4843003;29;20083;-67
2023/04/19 03:38:39;;;;;;;7.30;3.63;;;22.90;59.50;;;;;;4842774;29;20037;-69
2023/04/19 03:41:20;;;;;;;11.68;3.75;;;22.80;59.10;;;;;;4828394;29;20039;-68
2023/04/19 03:43:47;;;;;;;10.15;4.30;;;22.90;59.10;;;;;;4859735;29;20060;-68
2023/04/19 03:46:14;;;;;;;5.38;3.42;;;22.90;59.00;;;;;;4860705;29;20141;-68
2023/04/19 03:48:40;;;;;;;9.05;3.55;;;23.00;59.00;;;;;;4859099;29;20037;-68
2023/04/19 03:51:06;;;;;;;6.00;3.97;;;23.00;59.00;;;;;;4858152;29;20057;-68
2023/04/19 03:53:33;;;;;;;8.13;3.58;;;23.00;59.00;;;;;;4859320;29;20038;-71
2023/04/19 03:55:59;;;;;;;5.97;3.15;;;23.00;59.00;;;;;;4859378;29;20033;-73
2023/04/19 03:58:25;;;;;;;6.05;3.22;;;22.90;63.00;;;;;;4859196;29;20121;-72
2023/04/19 04:01:02;;;;;;;7.20;3.78;;;23.30;62.60;;;;;;4859368;29;20042;-73
2023/04/19 04:03:29;;;;;;;10.10;3.97;;;23.50;61.70;;;;;;4843809;29;20069;-72
2023/04/19 04:05:55;;;;;;;6.75;4.40;;;23.90;65.10;;;;;;4860421;29;20480;-72
2023/04/19 04:08:21;;;;;;;6.88;4.07;;;23.90;58.50;;;;;;4858706;29;20162;-71
2023/04/19 04:10:47;;;;;;;6.22;4.25;;;23.90;60.00;;;;;;4860199;29;20181;-72
2023/04/19 04:13:14;;;;;;;6.22;3.40;;;23.90;65.90;;;;;;4859098;29;20050;-75
2023/04/19 04:15:48;;;;;;;9.88;3.35;;;23.90;59.20;;;;;;4858950;29;20052;-78
2023/04/19 04:18:16;;;;;;;8.73;3.80;;;24.00;57.50;;;;;;4859100;29;20046;-72
2023/04/19 04:20:43;;;;;;;6.85;3.90;;;23.90;56.40;;;;;;4843248;29;20044;-75
2023/04/19 04:23:10;;;;;;;5.88;3.55;;;23.70;55.90;;;;;;4827896;29;20042;-73
2023/04/19 04:25:41;;;;;;;5.13;3.10;;;23.80;55.70;;;;;;4858712;29;20453;-74
2023/04/19 04:28:10;;;;;;;7.15;3.97;;;23.80;55.10;;;;;;4858481;29;20044;-73
2023/04/19 04:30:39;;;;;;;7.10;3.50;;;23.80;54.70;;;;;;4858719;29;20505;-74
2023/04/19 04:33:10;;;;;;;4.88;3.13;;;23.80;54.30;;;;;;4858741;29;20843;-73
2023/04/19 04:35:38;;;;;;;6.82;3.33;;;23.70;54.00;;;;;;4858644;29;20041;-74
2023/04/19 04:38:12;;;;;;;7.03;3.00;;;23.80;53.60;;;;;;4858674;29;20040;-73
2023/04/19 04:40:38;;;;;;;6.13;3.88;;;23.90;53.40;;;;;;4858198;29;20543;-73
2023/04/19 04:43:04;;;;;;;10.82;3.30;;;23.90;53.20;;;;;;4859742;29;20037;-74
2023/04/19 04:45:32;;;;;;;12.13;3.65;;;23.90;52.90;;;;;;4858287;29;20025;-73
2023/04/19 04:47:59;;;;;;;7.97;3.63;;;23.80;52.60;;;;;;4843070;29;20135;-74
2023/04/19 04:50:25;;;;;;;8.40;3.00;;;23.70;52.40;;;;;;4858398;29;20498;-78
2023/04/19 04:52:52;;;;;;;11.27;3.47;;;23.70;52.20;;;;;;4843559;29;20041;-77
2023/04/19 04:55:27;;;;;;;7.47;3.50;;;23.70;52.30;;;;;;4829398;29;20082;-71
2023/04/19 04:57:53;;;;;;;7.32;2.63;;;23.90;54.10;;;;;;4859620;29;20025;-76
2023/04/19 05:00:29;;;;;;;3.70;1.55;;;23.80;55.00;;;;;;4858238;29;20060;-72
2023/04/19 05:03:03;;;;;;;3.20;2.03;;;23.90;53.80;;;;;;4858526;29;20044;-73
2023/04/19 05:05:30;;;;;;;12.45;1.75;;;23.90;52.60;;;;;;4858027;29;20068;-74
2023/04/19 05:07:56;;;;;;;10.90;3.42;;;23.90;52.10;;;;;;4856788;29;20096;-78
2023/04/19 05:10:22;;;;;;;9.45;3.45;;;23.80;51.70;;;;;;4855033;29;20109;-76
2023/04/19 05:12:48;;;;;;;7.28;2.30;;;23.90;53.40;;;;;;4855152;29;20048;-75
2023/04/19 05:15:14;;;;;;;6.30;3.20;;;23.90;55.80;;;;;;4824826;29;20053;-77
2023/04/19 05:17:47;;;;;;;5.95;3.08;;;23.90;56.70;;;;;;4855697;29;20117;-74
2023/04/19 05:20:13;;;;;;;8.38;3.92;;;23.80;58.70;;;;;;4837228;29;20598;-72
2023/04/19 05:22:40;;;;;;;8.57;4.55;;;23.90;51.80;;;;;;4855604;29;20037;-73
2023/04/19 05:25:09;;;;;;;7.03;3.88;;;23.80;51.20;;;;;;4857870;29;20394;-71
2023/04/19 05:27:35;;;;;;;6.00;4.13;;;23.80;51.10;;;;;;4857419;29;20046;-71
2023/04/19 05:30:03;;;;;;;13.25;4.00;;;23.80;57.20;;;;;;4857336;29;20045;-72
2023/04/19 05:32:30;;;;;;;6.70;3.53;;;23.80;57.00;;;;;;4851635;29;20045;-72
2023/04/19 05:34:58;;;;;;;9.52;4.03;;;23.90;57.10;;;;;;4839280;29;20042;-73
2023/04/19 05:37:24;;;;;;;7.78;3.58;;;23.80;57.20;;;;;;4839360;29;20087;-73
2023/04/19 05:39:50;;;;;;;8.43;4.13;;;23.90;57.60;;;;;;4839206;29;20391;-73
2023/04/19 05:42:17;;;;;;;8.75;4.18;;;23.90;57.60;;;;;;4839446;29;20042;-71
2023/04/19 05:44:43;;;;;;;8.43;3.33;;;23.90;58.10;;;;;;4840375;29;20125;-71
2023/04/19 05:47:10;;;;;;;8.70;3.88;;;23.80;58.20;;;;;;4824258;29;20557;-70
2023/04/19 05:49:56;;;;;;;6.38;3.35;;;23.90;57.10;;;;;;4839171;29;20045;-72
2023/04/19 05:52:36;;;;;;;11.77;4.13;;;24.10;57.50;;;;;;4801590;29;20118;-72
2023/04/19 05:55:04;;;;;;;10.20;3.30;;;24.30;56.40;;;;;;4786216;29;20099;-71
2023/04/19 05:57:32;;;;;;;9.52;3.42;;;24.50;58.90;;;;;;4786880;29;20057;-75
2023/04/19 05:59:58;;;;;;;9.63;3.25;;;24.50;56.10;;;;;;4788446;29;20043;-74
2023/04/19 06:02:39;;;;;;;9.25;3.50;;;24.40;58.00;;;;;;4801927;29;20123;-74
2023/04/19 06:05:06;;;;;;;10.43;3.25;;;24.30;56.70;;;;;;4801501;29;20043;-73
2023/04/19 06:07:32;;;;;;;6.80;3.13;;;24.40;59.60;;;;;;4801537;29;20140;-73
2023/04/19 06:09:58;;;;;;;18.58;11.80;;;24.50;62.00;;;;;;4786723;29;20429;-74
2023/04/19 06:12:24;;;;;;;24.05;12.80;;;25.00;62.20;;;;;;4801544;29;20050;-73
2023/04/19 06:14:51;;;;;;;9.90;4.63;;;25.20;59.60;;;;;;4819821;29;20074;-74
2023/04/19 06:17:23;;;;;;;5.80;3.67;;;25.10;56.90;;;;;;4837839;29;20042;-73
2023/04/19 06:19:53;;;;;;;6.25;3.72;;;25.10;57.80;;;;;;4837710;29;20130;-74
2023/04/19 06:22:20;;;;;;;12.52;3.95;;;25.00;56.30;;;;;;4838211;29;20041;-77
2023/04/19 06:24:46;;;;;;;2.28;2.08;;;25.00;55.80;;;;;;4837532;29;20056;-75
2023/04/19 06:27:14;;;;;;;4.53;2.13;;;24.90;55.80;;;;;;4837578;29;20114;-70
2023/04/19 06:29:40;;;;;;;6.95;2.95;;;25.00;61.70;;;;;;4822112;29;20054;-71
2023/04/19 06:32:06;;;;;;;4.20;3.28;;;24.90;57.30;;;;;;4835286;29;20069;-74
2023/04/19 06:34:32;;;;;;;3.42;2.42;;;24.90;56.40;;;;;;4819519;29;20039;-73
2023/04/19 06:36:58;;;;;;;9.35;2.88;;;25.00;54.90;;;;;;4819378;29;20074;-73
2023/04/19 06:39:24;;;;;;;8.20;1.75;;;24.90;55.40;;;;;;4818923;29;20146;-73
2023/04/19 06:41:50;;;;;;;11.50;4.22;;;25.00;60.80;;;;;;4804778;29;20435;-69
2023/04/19 06:44:16;;;;;;;6.53;4.43;;;25.10;60.80;;;;;;4822013;29;20042;-73
2023/04/19 06:46:42;;;;;;;9.32;3.40;;;25.20;59.60;;;;;;4791745;29;20043;-71
2023/04/19 06:49:08;;;;;;;10.30;4.68;;;25.20;58.20;;;;;;4822125;29;20046;-70
2023/04/19 06:51:34;;;;;;;9.52;4.53;;;25.10;54.70;;;;;;4821662;29;20155;-71
2023/04/19 06:54:00;;;;;;;12.82;5.32;;;25.10;52.10;;;;;;4821706;29;20232;-70
2023/04/19 06:56:44;;;;;;;12.00;5.20;;;25.20;55.30;;;;;;4823544;29;20147;-75
2023/04/19 06:59:15;;;;;;;10.25;5.07;;;25.30;54.30;;;;;;4822899;29;20042;-71
2023/04/19 07:01:42;;;;;;;13.35;5.20;;;25.20;55.00;;;;;;4824177;29;20034;-72
2023/04/19 07:04:08;;;;;;;11.98;5.22;;;25.30;55.30;;;;;;4824248;29;20042;-75
2023/04/19 07:06:38;;;;;;;10.50;4.22;;;25.30;52.60;;;;;;4846953;29;20036;-74
2023/04/19 07:09:05;;;;;;;13.75;5.32;;;25.30;68.30;;;;;;4860762;29;20116;-73
2023/04/19 07:11:32;;;;;;;8.80;4.82;;;25.40;55.40;;;;;;4860462;29;20067;-73
2023/04/19 07:14:01;;;;;;;9.27;4.43;;;25.50;50.50;;;;;;4860630;29;20081;-73
2023/04/19 07:16:27;;;;;;;9.77;3.40;;;25.50;49.60;;;;;;4860974;29;20040;-72
2023/04/19 07:18:53;;;;;;;14.25;3.63;;;25.70;58.30;;;;;;4860558;29;20061;-73
2023/04/19 07:21:19;;;;;;;7.53;4.45;;;25.60;59.20;;;;;;4843618;29;20077;-74
2023/04/19 07:23:45;;;;;;;14.18;3.83;;;25.80;64.90;;;;;;4842141;29;20042;-75
2023/04/19 07:26:13;;;;;;;9.25;4.60;;;25.60;62.60;;;;;;4841122;29;20046;-74
2023/04/19 07:28:39;;;;;;;9.43;2.97;;;25.70;58.10;;;;;;4842426;29;20030;-71
2023/04/19 07:31:05;;;;;;;17.38;3.33;;;25.50;55.40;;;;;;4842102;29;20045;-73
2023/04/19 07:33:31;;;;;;;6.63;3.78;;;25.50;55.00;;;;;;4842411;29;20045;-75
2023/04/19 07:35:57;;;;;;;12.98;4.40;;;25.50;54.60;;;;;;4842309;29;20085;-71
2023/04/19 07:38:24;;;;;;;16.58;4.95;;;25.70;53.70;;;;;;4841366;29;20058;-73
2023/04/19 07:40:50;;;;;;;16.35;4.97;;;25.50;56.60;;;;;;4857715;29;20042;-72
2023/04/19 07:43:16;;;;;;;13.43;2.17;;;25.70;54.20;;;;;;4860875;29;20417;-69
2023/04/19 07:45:42;;;;;;;12.60;4.07;;;25.70;55.40;;;;;;4860548;29;20034;-71
2023/04/19 07:48:08;;;;;;;14.45;6.13;;;25.70;53.90;;;;;;4860477;29;20029;-72
2023/04/19 07:50:34;;;;;;;12.70;5.78;;;25.70;53.50;;;;;;4859148;29;20101;-71
2023/04/19 07:53:00;;;;;;;19.67;5.38;;;25.60;51.60;;;;;;4858826;29;20025;-74
2023/04/19 07:55:26;;;;;;;11.68;4.22;;;25.50;46.90;;;;;;4860364;29;20050;-72
2023/04/19 07:57:52;;;;;;;11.10;4.55;;;25.60;48.30;;;;;;4860315;29;20030;-72
2023/04/19 08:00:20;;;;;;;7.38;3.20;;;25.60;56.90;;;;;;4860428;29;20033;-72
2023/04/19 08:02:47;;;;;;;8.80;4.38;;;25.70;47.50;;;;;;4860035;29;20045;-74
2023/04/19 08:05:16;;;;;;;16.13;4.70;;;25.60;49.20;;;;;;4860445;29;20049;-73
2023/04/19 08:07:43;;;;;;;16.90;5.25;;;25.60;51.90;;;;;;4860354;29;20053;-72
2023/04/19 08:10:09;;;;;;;9.93;4.10;;;25.70;52.00;;;;;;4860026;29;20042;-72
2023/04/19 08:12:35;;;;;;;16.23;3.60;;;25.60;56.60;;;;;;4860081;29;20037;-74
2023/04/19 08:15:02;;;;;;;8.55;3.97;;;25.60;48.00;;;;;;4860076;29;20141;-73
2023/04/19 08:17:28;;;;;;;14.00;3.97;;;25.60;49.80;;;;;;4860097;29;20045;-73
2023/04/19 08:19:54;;;;;;;10.90;4.20;;;25.50;47.10;;;;;;4859849;29;20083;-70
2023/04/19 08:22:21;;;;;;;9.23;4.07;;;25.60;49.30;;;;;;4858438;29;20080;-72
2023/04/19 08:24:50;;;;;;;12.48;4.85;;;25.40;46.00;;;;;;4859798;29;20073;-73
2023/04/19 08:27:16;;;;;;;8.93;3.70;;;25.30;44.60;;;;;;4860061;29;20128;-71
2023/04/19 08:29:43;;;;;;;9.32;4.45;;;25.30;44.60;;;;;;4843094;29;20380;-71
2023/04/19 08:32:09;;;;;;;7.70;3.70;;;25.30;46.00;;;;;;4859528;29;20406;-73
2023/04/19 08:34:36;;;;;;;9.43;4.00;;;25.40;44.10;;;;;;4843069;29;20045;-73
2023/04/19 08:37:03;;;;;;;10.10;4.25;;;25.30;44.80;;;;;;4858480;29;20037;-73
2023/04/19 08:39:33;;;;;;;9.02;3.50;;;25.30;44.50;;;;;;4860167;29;20038;-74
2023/04/19 08:42:07;;;;;;;15.90;3.90;;;25.10;47.20;;;;;;4859958;29;20060;-73
2023/04/19 08:44:36;;;;;;;6.45;3.30;;;25.20;47.70;;;;;;4860041;29;20041;-74
2023/04/19 08:47:04;;;;;;;7.75;3.63;;;25.30;51.40;;;;;;4860046;29;20074;-74
2023/04/19 08:49:40;;;;;;;9.57;4.20;;;25.40;47.10;;;;;;4858629;29;20057;-73
2023/04/19 08:52:07;;;;;;;9.50;4.32;;;25.30;47.20;;;;;;4859503;29;20073;-73
2023/04/19 08:54:35;;;;;;;11.75;4.80;;;25.50;50.90;;;;;;4859563;29;20030;-73
2023/04/19 08:57:02;;;;;;;11.77;5.20;;;25.60;50.20;;;;;;4826607;29;20130;-73
2023/04/19 08:59:29;;;;;;;15.35;4.95;;;25.60;49.30;;;;;;4859479;29;20037;-73
2023/04/19 09:01:59;;;;;;;10.38;4.57;;;25.70;47.00;;;;;;4859199;29;20040;-73
2023/04/19 09:04:25;;;;;;;9.32;4.15;;;25.60;46.20;;;;;;4858890;29;20037;-74
2023/04/19 09:06:52;;;;;;;9.40;3.90;;;25.70;45.00;;;;;;4852444;29;20029;-72
2023/04/19 09:09:25;;;;;;;12.38;4.45;;;25.70;44.30;;;;;;4841322;29;20038;-74
2023/04/19 09:11:52;;;;;;;8.18;4.32;;;25.60;45.10;;;;;;4840788;29;20109;-73
2023/04/19 09:14:19;;;;;;;7.50;4.57;;;25.50;44.00;;;;;;4840935;29;20053;-71
2023/04/19 09:16:46;;;;;;;10.80;4.30;;;25.40;45.50;;;;;;4840806;29;20067;-72
2023/04/19 09:19:12;;;;;;;12.60;4.60;;;25.60;44.90;;;;;;4840907;29;20175;-73
2023/04/19 09:21:39;;;;;;;14.73;5.97;;;25.60;44.80;;;;;;4847186;29;20040;-72
2023/04/19 09:24:06;;;;;;;11.50;4.85;;;25.50;44.60;;;;;;4841733;29;20494;-73
2023/04/19 09:26:33;;;;;;;5.07;3.40;;;25.40;45.70;;;;;;4855018;29;20044;-73
2023/04/19 09:29:03;;;;;;;10.43;3.70;;;25.40;50.50;;;;;;4837797;29;20050;-72
2023/04/19 09:31:34;;;;;;;12.45;4.00;;;25.40;50.00;;;;;;4838152;29;20057;-74
2023/04/19 09:34:15;;;;;;;12.93;3.65;;;25.30;49.50;;;;;;4838240;29;20102;-72
2023/04/19 09:36:41;;;;;;;12.55;3.42;;;25.30;52.40;;;;;;4838513;29;20034;-74
2023/04/19 09:39:07;;;;;;;9.55;3.70;;;25.30;53.40;;;;;;4838126;29;20045;-73
2023/04/19 09:41:36;;;;;;;9.82;3.58;;;25.20;53.80;;;;;;4838010;29;20487;-74
2023/04/19 09:44:14;;;;;;;8.10;3.72;;;25.10;53.30;;;;;;4823043;29;20457;-73
2023/04/19 09:46:45;;;;;;;7.45;3.97;;;25.00;54.20;;;;;;4838656;29;20038;-72
2023/04/19 09:49:18;;;;;;;9.38;3.72;;;25.00;53.60;;;;;;4837774;29;20054;-72
2023/04/19 09:51:51;;;;;;;11.02;3.30;;;25.00;52.30;;;;;;4837801;29;20038;-73
2023/04/19 09:54:19;;;;;;;10.32;4.00;;;25.00;54.00;;;;;;4838132;29;20053;-73
2023/04/19 09:56:46;;;;;;;8.30;3.38;;;25.00;56.50;;;;;;4822998;29;20158;-73
2023/04/19 09:59:12;;;;;;;16.23;4.57;;;25.00;56.40;;;;;;4838364;29;20077;-73
2023/04/19 10:01:52;;;;;;;7.03;3.40;;;25.00;51.60;;;;;;4839081;29;20066;-72
2023/04/19 10:04:23;;;;;;;8.63;3.00;;;24.90;51.30;;;;;;4840416;29;20044;-73
2023/04/19 10:06:50;;;;;;;14.40;5.68;;;25.10;49.40;;;;;;4846421;29;20080;-74
2023/04/19 10:09:25;;;;;;;6.43;3.38;;;25.10;47.90;;;;;;4858572;29;20101;-74
2023/04/19 10:11:52;;;;;;;6.80;3.38;;;25.20;45.60;;;;;;4858481;29;20109;-74
2023/04/19 10:14:23;;;;;;;12.02;3.50;;;25.20;56.10;;;;;;4858601;29;20030;-75
2023/04/19 10:16:49;;;;;;;9.95;3.58;;;25.10;55.30;;;;;;4861523;29;20041;-75
2023/04/19 10:19:17;;;;;;;13.40;3.45;;;25.10;55.00;;;;;;4862510;29;20113;-74
2023/04/19 10:21:46;;;;;;;10.02;3.78;;;25.10;55.10;;;;;;4862430;29;20034;-74
2023/04/19 10:24:13;;;;;;;11.18;4.55;;;25.00;54.00;;;;;;4860856;29;20043;-72
2023/04/19 10:27:10;;;;;;;10.48;4.50;;;25.00;54.20;;;;;;4860883;29;20041;-73
2023/04/19 10:30:02;;;;;;;6.57;3.22;;;25.00;53.40;;;;;;4861817;29;20573;-73
2023/04/19 10:32:35;;;;;;;5.55;3.03;;;24.90;55.10;;;;;;4860390;29;20516;-72
2023/04/19 10:35:06;;;;;;;8.73;3.15;;;25.00;54.60;;;;;;4862052;29;20153;-72
2023/04/19 10:37:32;;;;;;;11.38;3.72;;;24.90;54.50;;;;;;4861801;29;20539;-73
2023/04/19 10:39:58;;;;;;;11.98;3.58;;;24.90;54.90;;;;;;4862079;29;20089;-76
2023/04/19 10:42:24;;;;;;;6.80;1.95;;;24.80;53.40;;;;;;4861808;29;20037;-74
2023/04/19 10:45:32;;;;;;;13.50;4.28;;;24.80;53.00;;;;;;4861852;29;20488;-73
2023/04/19 10:47:58;;;;;;;9.75;3.72;;;24.90;51.70;;;;;;4861577;29;20045;-74
2023/04/19 10:50:25;;;;;;;8.38;3.50;;;25.00;53.70;;;;;;4861556;29;20054;-71
2023/04/19 10:52:51;;;;;;;6.70;3.60;;;25.00;51.70;;;;;;4860222;29;20037;-74
2023/04/19 10:55:19;;;;;;;8.98;4.07;;;25.10;51.10;;;;;;4859659;29;20124;-74
2023/04/19 10:58:04;;;;;;;6.30;3.40;;;25.10;51.30;;;;;;4859245;29;20033;-74
2023/04/19 11:00:31;;;;;;;7.03;3.20;;;25.10;45.60;;;;;;4862065;29;20104;-71
2023/04/19 11:02:59;;;;;;;8.30;3.63;;;25.10;54.20;;;;;;4861424;29;20497;-73
2023/04/19 11:05:26;;;;;;;8.68;3.60;;;25.10;55.50;;;;;;4860480;29;20041;-74
2023/04/19 11:07:52;;;;;;;4.75;3.65;;;25.00;53.00;;;;;;4847059;29;20133;-76
2023/04/19 11:10:32;;;;;;;6.97;3.55;;;25.00;54.40;;;;;;4843316;29;20050;-74
2023/04/19 11:12:58;;;;;;;8.48;3.53;;;24.90;54.80;;;;;;4842852;29;20030;-74
2023/04/19 11:15:24;;;;;;;10.82;3.72;;;25.00;53.60;;;;;;4843013;29;20490;-73
2023/04/19 11:17:51;;;;;;;6.30;2.88;;;24.90;53.80;;;;;;4840626;29;20395;-71
2023/04/19 11:20:21;;;;;;;7.80;3.53;;;24.90;54.70;;;;;;4840622;29;20034;-75
2023/04/19 11:22:47;;;;;;;11.48;4.53;;;24.80;54.70;;;;;;4840569;29;20058;-74
2023/04/19 11:25:16;;;;;;;7.95;3.72;;;25.00;55.70;;;;;;4822443;29;20054;-74
2023/04/19 11:27:47;;;;;;;9.55;3.17;;;25.00;55.40;;;;;;4844494;29;20127;-75
2023/04/19 11:30:20;;;;;;;8.52;3.63;;;24.70;55.80;;;;;;4858285;29;20061;-75
2023/04/19 11:32:51;;;;;;;8.93;3.80;;;24.90;56.50;;;;;;4841605;29;20048;-73
2023/04/19 11:35:20;;;;;;;7.55;3.63;;;25.00;57.10;;;;;;4852960;29;20044;-72
2023/04/19 11:37:46;;;;;;;7.43;3.63;;;25.00;56.90;;;;;;4835870;29;20046;-75
2023/04/19 11:40:17;;;;;;;7.63;4.00;;;24.90;56.20;;;;;;4838893;29;20719;-73
2023/04/19 11:42:44;;;;;;;4.82;3.47;;;24.90;56.10;;;;;;4838789;29;20030;-72
2023/04/19 11:45:11;;;;;;;10.95;4.40;;;25.00;56.70;;;;;;4839634;29;20117;-71
2023/04/19 11:47:48;;;;;;;12.10;3.88;;;24.90;55.20;;;;;;4854162;29;20042;-73
2023/04/19 11:50:37;;;;;;;6.78;4.22;;;24.80;56.10;;;;;;4840753;29;20050;-74
2023/04/19 11:53:16;;;;;;;8.85;3.80;;;24.90;56.30;;;;;;4841318;29;20491;-73
2023/04/19 11:55:50;;;;;;;6.80;3.38;;;24.80;55.60;;;;;;4841915;29;20454;-73
2023/04/19 11:58:25;;;;;;;7.45;3.47;;;24.90;57.30;;;;;;4842311;29;20038;-70
2023/04/19 12:00:51;;;;;;;8.30;4.05;;;24.80;57.10;;;;;;4843798;29;20244;-74
2023/04/19 12:03:22;;;;;;;7.88;3.85;;;24.90;56.70;;;;;;4857816;29;20470;-73
2023/04/19 12:05:56;;;;;;;9.38;3.78;;;24.90;55.70;;;;;;4857936;29;20355;-72
2023/04/19 12:08:36;;;;;;;9.18;3.53;;;24.90;56.40;;;;;;4858799;29;20068;-71
2023/04/19 12:11:03;;;;;;;7.63;3.63;;;24.90;56.00;;;;;;4860083;29;20057;-72
2023/04/19 12:13:30;;;;;;;4.70;3.22;;;24.80;55.80;;;;;;4860249;29;20037;-73
2023/04/19 12:15:56;;;;;;;8.15;3.20;;;24.80;58.30;;;;;;4860416;29;20041;-72
2023/04/19 12:18:22;;;;;;;8.45;3.50;;;24.70;58.70;;;;;;4860314;29;20041;-70
2023/04/19 12:20:50;;;;;;;7.43;4.22;;;24.70;60.00;;;;;;4848240;29;20038;-74
2023/04/19 12:23:18;;;;;;;6.00;3.63;;;24.80;58.90;;;;;;4841798;29;20042;-72
2023/04/19 12:25:46;;;;;;;4.32;3.25;;;24.70;58.10;;;;;;4841592;29;20514;-72
2023/04/19 12:28:14;;;;;;;9.35;4.25;;;24.70;59.60;;;;;;4855287;29;20383;-71
2023/04/19 12:30:41;;;;;;;6.95;3.10;;;24.80;57.80;;;;;;4859740;29;20045;-72
2023/04/19 12:33:08;;;;;;;8.02;3.95;;;24.80;58.10;;;;;;4860035;29;20389;-72
2023/04/19 12:35:34;;;;;;;7.50;3.47;;;24.70;57.90;;;;;;4859881;29;20029;-71
2023/04/19 12:38:01;;;;;;;6.28;2.95;;;24.80;57.90;;;;;;4859365;29;20037;-71
2023/04/19 12:40:29;;;;;;;8.82;3.50;;;24.80;58.30;;;;;;4858631;29;20034;-72
2023/04/19 12:42:55;;;;;;;8.13;3.25;;;24.80;57.80;;;;;;4859744;29;20137;-72
2023/04/19 12:45:21;;;;;;;6.25;2.42;;;24.80;57.80;;;;;;4859781;29;20071;-73
2023/04/19 12:47:47;;;;;;;5.57;2.67;;;24.80;57.90;;;;;;4859910;29;20109;-73